createdAt,value
2022-09-11T00:01:32.674Z,0.25
2022-09-11T00:03:59.801Z,1.40
2022-09-11T00:06:30.052Z,0.63
2022-09-11T00:09:03.639Z,0.50
2022-09-11T00:11:37.720Z,1.15
2022-09-11T00:14:04.817Z,0.75
2022-09-11T00:16:37.239Z,1.43
2022-09-11T00:19:07.298Z,1.35
2022-09-11T00:21:34.676Z,0.43
2022-09-11T00:24:01.746Z,1.17
2022-09-11T00:26:28.486Z,0.52
2022-09-11T00:28:55.792Z,1.20
2022-09-11T00:31:26.429Z,2.15
2022-09-11T00:33:54.199Z,1.00
2022-09-11T00:36:25.859Z,1.05
2022-09-11T00:38:53.211Z,0.40
2022-09-11T00:41:29.040Z,0.73
2022-09-11T00:44:03.561Z,0.70
2022-09-11T00:46:44.751Z,0.95
2022-09-11T00:49:26.602Z,2.35
2022-09-11T00:51:56.109Z,0.60
2022-09-11T00:54:30.313Z,1.20
2022-09-11T00:57:00.484Z,1.05
2022-09-11T00:59:31.131Z,0.98
2022-09-11T01:01:58.027Z,1.08
2022-09-11T01:04:24.990Z,1.83
2022-09-11T01:06:56.082Z,1.27
2022-09-11T01:09:26.060Z,0.57
2022-09-11T01:12:19.808Z,0.90
2022-09-11T01:15:10.133Z,0.55
2022-09-11T01:17:58.781Z,1.08
2022-09-11T01:20:36.472Z,1.17
2022-09-11T01:23:20.374Z,1.40
2022-09-11T01:26:15.147Z,0.70
2022-09-11T01:29:09.203Z,0.63
2022-09-11T01:31:50.535Z,0.93
2022-09-11T01:34:55.555Z,1.47
2022-09-11T01:37:29.367Z,0.90
2022-09-11T01:40:04.184Z,0.70
2022-09-11T01:42:36.155Z,0.70
2022-09-11T01:45:05.891Z,1.25
2022-09-11T01:47:35.298Z,1.47
2022-09-11T01:50:22.985Z,1.45
2022-09-11T01:52:58.818Z,2.63
2022-09-11T01:55:39.208Z,1.17
2022-09-11T01:58:10.460Z,1.08
2022-09-11T02:00:45.714Z,0.50
2022-09-11T02:03:21.340Z,2.00
2022-09-11T02:05:58.039Z,1.92
2022-09-11T02:08:37.328Z,0.93
2022-09-11T02:11:10.750Z,1.73
2022-09-11T02:13:42.981Z,1.07
2022-09-11T02:16:19.539Z,1.10
2022-09-11T02:19:01.735Z,0.77
2022-09-11T02:21:29.262Z,1.55
2022-09-11T02:23:56.043Z,1.35
2022-09-11T02:26:29.200Z,1.83
2022-09-11T02:28:56.799Z,1.10
2022-09-11T02:31:24.482Z,1.40
2022-09-11T02:33:51.506Z,1.45
2022-09-11T02:36:49.881Z,1.77
2022-09-11T02:39:55.370Z,1.17
2022-09-11T02:42:31.293Z,2.45
2022-09-11T02:45:14.823Z,0.70
2022-09-11T02:48:08.654Z,0.77
2022-09-11T02:50:56.484Z,1.15
2022-09-11T02:53:35.455Z,1.60
2022-09-11T02:56:18.851Z,1.75
2022-09-11T02:59:07.385Z,0.80
2022-09-11T03:01:54.020Z,1.65
2022-09-11T03:04:25.057Z,1.23
2022-09-11T03:06:54.347Z,1.70
2022-09-11T03:09:21.155Z,1.85
2022-09-11T03:11:51.749Z,1.45
2022-09-11T03:14:19.839Z,1.83
2022-09-11T03:16:46.847Z,1.73
2022-09-11T03:19:14.214Z,1.17
2022-09-11T03:21:40.999Z,1.17
2022-09-11T03:24:07.969Z,0.90
2022-09-11T03:26:37.045Z,1.73
2022-09-11T03:29:04.274Z,2.97
2022-09-11T03:31:32.311Z,1.87
2022-09-11T03:34:00.678Z,2.65
2022-09-11T03:36:28.164Z,1.42
2022-09-11T03:38:54.977Z,2.42
2022-09-11T03:41:21.990Z,0.68
2022-09-11T03:43:48.719Z,1.50
2022-09-11T03:46:15.690Z,1.27
2022-09-11T03:48:42.499Z,1.52
2022-09-11T03:51:09.340Z,1.95
2022-09-11T03:53:36.126Z,1.52
2022-09-11T03:56:03.132Z,0.70
2022-09-11T03:58:35.229Z,2.78
2022-09-11T04:01:02.112Z,1.00
2022-09-11T04:03:29.723Z,0.93
2022-09-11T04:06:01.282Z,0.70
2022-09-11T04:08:30.995Z,1.43
2022-09-11T04:10:58.992Z,1.13
2022-09-11T04:13:31.150Z,1.15
2022-09-11T04:16:04.427Z,1.02
2022-09-11T04:18:37.369Z,0.98
2022-09-11T04:21:10.396Z,1.10
2022-09-11T04:23:38.539Z,1.77
2022-09-11T04:26:19.823Z,1.10
2022-09-11T04:28:51.282Z,1.35
2022-09-11T04:31:19.288Z,1.08
2022-09-11T04:33:47.652Z,1.00
2022-09-11T04:36:17.832Z,1.75
2022-09-11T04:38:46.394Z,2.75
2022-09-11T04:41:15.881Z,1.90
2022-09-11T04:43:43.165Z,2.78
2022-09-11T04:46:15.974Z,1.13
2022-09-11T04:48:48.881Z,1.42
2022-09-11T04:51:24.158Z,1.30
2022-09-11T04:53:52.416Z,1.52
2022-09-11T04:56:20.077Z,1.98
2022-09-11T04:58:53.684Z,2.33
2022-09-11T05:01:22.170Z,1.92
2022-09-11T05:03:51.987Z,1.60
2022-09-11T05:06:19.324Z,2.05
2022-09-11T05:08:47.652Z,3.50
2022-09-11T05:11:18.667Z,2.13
2022-09-11T05:13:46.846Z,1.77
2022-09-11T05:16:16.681Z,1.42
2022-09-11T05:18:49.198Z,1.80
2022-09-11T05:21:16.683Z,2.15
2022-09-11T05:23:47.923Z,1.97
2022-09-11T05:26:18.203Z,2.08
2022-09-11T05:28:45.592Z,1.38
2022-09-11T05:31:17.975Z,1.35
2022-09-11T05:33:45.802Z,1.33
2022-09-11T05:36:14.542Z,0.97
2022-09-11T05:38:42.356Z,1.83
2022-09-11T05:41:12.713Z,0.98
2022-09-11T05:43:41.678Z,1.45
2022-09-11T05:46:11.916Z,1.92
2022-09-11T05:48:39.164Z,1.73
2022-09-11T05:51:09.816Z,1.55
2022-09-11T05:53:37.597Z,2.03
2022-09-11T05:56:08.599Z,1.90
2022-09-11T05:58:36.399Z,1.70
2022-09-11T06:01:11.183Z,3.50
2022-09-11T06:03:40.425Z,1.67
2022-09-11T06:06:12.444Z,1.65
2022-09-11T06:08:40.996Z,1.00
2022-09-11T06:11:08.468Z,1.38
2022-09-11T06:13:38.868Z,1.73
2022-09-11T06:16:18.587Z,1.77
2022-09-11T06:18:47.601Z,1.65
2022-09-11T06:21:15.511Z,2.53
2022-09-11T06:23:50.835Z,1.90
2022-09-11T06:26:25.192Z,1.73
2022-09-11T06:28:54.396Z,1.92
2022-09-11T06:31:26.070Z,1.17
2022-09-11T06:33:54.718Z,2.38
2022-09-11T06:36:24.116Z,3.60
2022-09-11T06:38:56.349Z,1.23
2022-09-11T06:41:26.394Z,0.88
2022-09-11T06:43:58.396Z,1.10
2022-09-11T06:46:27.495Z,1.45
2022-09-11T06:48:56.973Z,2.28
2022-09-11T06:51:26.681Z,1.80
2022-09-11T06:53:55.421Z,2.22
2022-09-11T06:56:22.233Z,1.95
2022-09-11T06:58:50.422Z,1.60
2022-09-11T07:01:20.344Z,1.10
2022-09-11T07:03:54.845Z,1.37
2022-09-11T07:06:27.328Z,2.90
2022-09-11T07:08:58.152Z,1.30
2022-09-11T07:11:25.673Z,1.58
2022-09-11T07:13:53.949Z,1.67
2022-09-11T07:16:20.763Z,2.20
2022-09-11T07:18:53.875Z,1.27
2022-09-11T07:21:25.675Z,1.63
2022-09-11T07:23:59.440Z,1.50
2022-09-11T07:26:31.022Z,1.27
2022-09-11T07:29:04.318Z,1.70
2022-09-11T07:31:32.961Z,2.65
2022-09-11T07:34:00.700Z,2.25
2022-09-11T07:36:30.120Z,2.72
2022-09-11T07:38:58.144Z,1.75
2022-09-11T07:41:32.203Z,3.17
2022-09-11T07:44:03.267Z,3.83
2022-09-11T07:46:31.813Z,2.55
2022-09-11T07:49:02.415Z,1.55
2022-09-11T07:51:30.503Z,2.25
2022-09-11T07:54:02.573Z,1.60
2022-09-11T07:56:33.872Z,1.90
2022-09-11T07:59:02.289Z,2.17
2022-09-11T08:01:31.416Z,2.17
2022-09-11T08:04:01.443Z,3.33
2022-09-11T08:06:31.064Z,4.10
2022-09-11T08:09:03.941Z,2.28
2022-09-11T08:11:37.574Z,2.70
2022-09-11T08:14:04.504Z,2.00
2022-09-11T08:16:32.152Z,2.47
2022-09-11T08:19:00.397Z,2.43
2022-09-11T08:21:27.275Z,1.38
2022-09-11T08:23:54.527Z,2.10
2022-09-11T08:26:27.465Z,2.08
2022-09-11T08:28:57.958Z,2.15
2022-09-11T08:31:27.989Z,1.70
2022-09-11T08:33:57.576Z,2.92
2022-09-11T08:36:24.695Z,1.65
2022-09-11T08:38:52.998Z,2.42
2022-09-11T08:41:23.770Z,2.30
2022-09-11T08:44:13.055Z,2.00
2022-09-11T08:46:48.455Z,3.60
2022-09-11T08:49:29.022Z,2.25
2022-09-11T08:52:01.380Z,2.67
2022-09-11T08:54:33.117Z,2.45
2022-09-11T08:57:14.470Z,1.77
2022-09-11T09:00:06.982Z,2.05
2022-09-11T09:03:13.377Z,1.60
2022-09-11T09:06:08.083Z,1.85
2022-09-11T09:08:49.904Z,1.98
2022-09-11T09:11:51.166Z,2.67
2022-09-11T09:14:42.385Z,2.05
2022-09-11T09:17:22.228Z,3.10
2022-09-11T09:20:04.410Z,2.08
2022-09-11T09:22:48.625Z,2.30
2022-09-11T09:25:21.329Z,1.13
2022-09-11T09:27:57.928Z,1.33
2022-09-11T09:30:25.367Z,2.55
2022-09-11T09:32:55.637Z,1.73
2022-09-11T09:35:45.269Z,2.10
2022-09-11T09:38:26.414Z,2.30
2022-09-11T09:41:03.578Z,2.70
2022-09-11T09:43:45.559Z,2.05
2022-09-11T09:46:36.156Z,1.52
2022-09-11T09:49:03.200Z,2.33
2022-09-11T09:51:30.031Z,2.20
2022-09-11T09:54:01.522Z,2.30
2022-09-11T09:56:31.370Z,1.60
2022-09-11T09:59:18.869Z,2.15
2022-09-11T10:01:51.405Z,2.60
2022-09-11T10:04:20.548Z,2.10
2022-09-11T10:06:50.682Z,0.85
2022-09-11T10:09:29.547Z,1.75
2022-09-11T10:12:02.482Z,1.75
2022-09-11T10:14:50.292Z,1.05
2022-09-11T10:17:28.334Z,1.67
2022-09-11T10:19:56.884Z,1.27
2022-09-11T10:22:29.665Z,1.65
2022-09-11T10:25:09.596Z,1.48
2022-09-11T10:27:58.477Z,1.95
2022-09-11T10:30:37.446Z,2.00
2022-09-11T10:33:33.692Z,2.25
2022-09-11T10:36:03.787Z,4.45
2022-09-11T10:38:51.503Z,2.33
2022-09-11T10:41:23.465Z,2.13
2022-09-11T10:44:23.445Z,2.73
2022-09-11T10:47:05.879Z,3.00
2022-09-11T10:49:32.926Z,3.47
2022-09-11T10:52:17.434Z,2.85
2022-09-11T10:55:12.437Z,3.13
2022-09-11T10:57:45.252Z,4.67
2022-09-11T11:00:25.130Z,2.65
2022-09-11T11:03:10.655Z,2.80
2022-09-11T11:05:45.971Z,3.38
2022-09-11T11:08:15.778Z,2.72
2022-09-11T11:11:01.555Z,2.53
2022-09-11T11:13:39.644Z,2.33
2022-09-11T11:16:43.680Z,2.25
2022-09-11T11:19:31.972Z,1.80
2022-09-11T11:22:22.212Z,2.50
2022-09-11T11:25:16.369Z,1.53
2022-09-11T11:28:11.186Z,1.58
2022-09-11T11:31:15.824Z,1.95
2022-09-11T11:33:42.583Z,1.40
2022-09-11T11:36:33.444Z,1.23
2022-09-11T11:39:16.574Z,1.43
2022-09-11T11:41:47.026Z,2.00
2022-09-11T11:44:50.544Z,1.52
2022-09-11T11:47:21.854Z,1.50
2022-09-11T11:50:03.679Z,2.00
2022-09-11T11:52:33.165Z,1.93
2022-09-11T11:55:15.927Z,1.95
2022-09-11T11:57:50.938Z,1.92
2022-09-11T12:00:18.718Z,1.90
2022-09-11T12:03:10.642Z,2.65
2022-09-11T12:05:38.664Z,1.33
2022-09-11T12:08:12.339Z,1.20
2022-09-11T12:10:41.850Z,1.67
2022-09-11T12:13:19.920Z,1.92
2022-09-11T12:16:11.359Z,2.35
2022-09-11T12:18:38.951Z,2.23
2022-09-11T12:21:31.816Z,2.22
2022-09-11T12:23:58.571Z,1.65
2022-09-11T12:26:26.911Z,2.35
2022-09-11T12:29:12.952Z,3.60
2022-09-11T12:31:52.028Z,0.97
2022-09-11T12:34:52.259Z,1.00
2022-09-11T12:37:35.426Z,2.05
2022-09-11T12:40:14.161Z,0.70
2022-09-11T12:42:56.560Z,1.08
2022-09-11T12:45:32.584Z,0.73
2022-09-11T12:48:12.682Z,0.98
2022-09-11T12:50:48.119Z,0.60
2022-09-11T12:53:21.068Z,0.70
2022-09-11T12:56:08.402Z,1.05
2022-09-11T12:58:39.153Z,0.90
2022-09-11T13:01:11.625Z,0.52
2022-09-11T13:03:49.559Z,0.65
2022-09-11T13:06:17.704Z,0.93
2022-09-11T13:08:55.632Z,0.55
2022-09-11T13:11:47.003Z,1.00
2022-09-11T13:14:28.125Z,1.13
2022-09-11T13:17:03.627Z,0.85
2022-09-11T13:19:37.094Z,0.85
2022-09-11T13:22:29.377Z,0.98
2022-09-11T13:25:22.604Z,1.27
2022-09-11T13:27:52.727Z,2.78
2022-09-11T13:30:22.307Z,1.05
2022-09-11T13:32:59.637Z,0.63
2022-09-11T13:35:29.280Z,0.55
2022-09-11T13:38:11.186Z,1.20
2022-09-11T13:40:58.847Z,1.70
2022-09-11T13:43:33.014Z,1.40
2022-09-11T13:46:10.818Z,0.50
2022-09-11T13:48:37.638Z,1.05
2022-09-11T13:51:05.075Z,0.77
2022-09-11T13:53:32.856Z,1.13
2022-09-11T13:55:59.592Z,1.08
2022-09-11T13:58:30.863Z,0.82
2022-09-11T14:01:10.651Z,0.98
2022-09-11T14:03:42.832Z,1.27
2022-09-11T14:06:15.330Z,2.03
2022-09-11T14:08:49.004Z,0.57
2022-09-11T14:11:28.052Z,0.75
2022-09-11T14:14:30.021Z,0.82
2022-09-11T14:16:59.980Z,0.43
2022-09-11T14:19:31.253Z,0.50
2022-09-11T14:21:59.064Z,0.93
2022-09-11T14:24:27.097Z,0.60
2022-09-11T14:26:54.464Z,1.10
2022-09-11T14:29:26.006Z,0.57
2022-09-11T14:31:53.479Z,0.65
2022-09-11T14:34:29.474Z,0.50
2022-09-11T14:37:11.334Z,0.60
2022-09-11T14:39:47.554Z,0.68
2022-09-11T14:42:22.635Z,0.60
2022-09-11T14:44:49.598Z,0.65
2022-09-11T14:47:19.218Z,0.60
2022-09-11T14:49:47.150Z,0.30
2022-09-11T14:52:17.049Z,0.40
2022-09-11T14:54:44.809Z,0.23
2022-09-11T14:57:17.215Z,0.50
2022-09-11T14:59:47.151Z,0.47
2022-09-11T15:02:18.252Z,0.60
2022-09-11T15:04:45.061Z,0.93
2022-09-11T15:07:13.677Z,0.30
2022-09-11T15:09:41.401Z,0.40
2022-09-11T15:12:09.919Z,0.38
2022-09-11T15:14:55.544Z,0.30
2022-09-11T15:17:22.797Z,0.50
2022-09-11T15:19:49.609Z,0.40
2022-09-11T15:22:17.177Z,0.30
2022-09-11T15:24:43.901Z,0.40
2022-09-11T15:27:10.663Z,0.50
2022-09-11T15:29:37.524Z,0.35
2022-09-11T15:32:04.516Z,0.60
2022-09-11T15:34:31.262Z,0.50
2022-09-11T15:36:58.223Z,0.50
2022-09-11T15:39:25.066Z,0.88
2022-09-11T15:41:52.539Z,0.80
2022-09-11T15:44:22.287Z,0.40
2022-09-11T15:46:51.088Z,1.13
2022-09-11T15:49:19.289Z,0.77
2022-09-11T15:51:46.166Z,0.40
2022-09-11T15:54:13.088Z,0.80
2022-09-11T15:56:39.875Z,0.93
2022-09-11T15:59:06.609Z,1.00
2022-09-11T16:01:35.089Z,1.88
2022-09-11T16:04:08.393Z,0.93
2022-09-11T16:06:38.401Z,1.00
2022-09-11T16:09:08.397Z,5.00
2022-09-11T16:11:35.618Z,4.28
2022-09-11T16:14:03.349Z,3.05
2022-09-11T16:16:30.038Z,5.40
2022-09-11T16:18:56.879Z,1.70
2022-09-11T16:21:23.615Z,3.80
2022-09-11T16:23:55.015Z,2.35
2022-09-11T16:26:23.580Z,3.25
2022-09-11T16:28:50.479Z,2.15
2022-09-11T16:31:17.275Z,1.20
2022-09-11T16:33:44.644Z,1.63
2022-09-11T16:36:17.308Z,1.98
2022-09-11T16:38:45.742Z,1.40
2022-09-11T16:41:15.311Z,2.60
2022-09-11T16:43:44.238Z,1.60
2022-09-11T16:46:13.908Z,1.20
2022-09-11T16:48:41.595Z,1.55
2022-09-11T16:51:08.361Z,1.40
2022-09-11T16:53:35.532Z,1.42
2022-09-11T16:56:10.310Z,2.15
2022-09-11T16:58:37.965Z,2.37
2022-09-11T17:01:09.464Z,1.45
2022-09-11T17:03:41.399Z,1.75
2022-09-11T17:06:09.514Z,1.40
2022-09-11T17:08:36.404Z,1.42
2022-09-11T17:11:03.148Z,1.60
2022-09-11T17:13:30.055Z,1.85
2022-09-11T17:16:05.464Z,1.80
2022-09-11T17:18:33.286Z,1.90
2022-09-11T17:21:04.527Z,1.55
2022-09-11T17:23:35.610Z,1.70
2022-09-11T17:26:07.606Z,1.67
2022-09-11T17:28:37.056Z,1.80
2022-09-11T17:31:05.476Z,3.05
2022-09-11T17:33:35.132Z,2.45
2022-09-11T17:36:04.107Z,1.57
2022-09-11T17:38:31.531Z,1.75
2022-09-11T17:41:00.369Z,1.77
2022-09-11T17:43:27.766Z,1.98
2022-09-11T17:46:07.103Z,1.55
2022-09-11T17:48:34.941Z,1.90
2022-09-11T17:51:08.260Z,2.08
2022-09-11T17:53:38.395Z,2.65
2022-09-11T17:56:09.478Z,1.33
2022-09-11T17:58:37.564Z,2.40
2022-09-11T18:01:05.236Z,1.10
2022-09-11T18:03:33.124Z,2.53
2022-09-11T18:06:02.110Z,4.60
2022-09-11T18:08:37.173Z,1.38
2022-09-11T18:11:07.102Z,1.50
2022-09-11T18:13:34.593Z,3.83
2022-09-11T18:16:03.679Z,2.25
2022-09-11T18:18:31.415Z,1.48
2022-09-11T18:21:04.882Z,2.03
2022-09-11T18:23:32.177Z,2.20
2022-09-11T18:25:59.878Z,1.00
2022-09-11T18:28:27.216Z,1.42
2022-09-11T18:31:01.702Z,1.50
2022-09-11T18:33:29.038Z,1.90
2022-09-11T18:35:56.469Z,1.48
2022-09-11T18:38:23.858Z,1.73
2022-09-11T18:40:55.480Z,1.60
2022-09-11T18:43:22.815Z,1.88
2022-09-11T18:45:49.630Z,1.40
2022-09-11T18:48:16.791Z,1.63
2022-09-11T18:50:44.002Z,2.07
2022-09-11T18:53:11.247Z,1.27
2022-09-11T18:55:38.636Z,1.65
2022-09-11T18:58:06.113Z,1.90
2022-09-11T19:00:33.329Z,2.03
2022-09-11T19:03:00.364Z,1.57
2022-09-11T19:05:27.336Z,1.60
2022-09-11T19:07:56.448Z,2.22
2022-09-11T19:10:24.630Z,1.38
2022-09-11T19:12:51.598Z,1.52
2022-09-11T19:15:19.058Z,1.93
2022-09-11T19:17:48.046Z,1.98
2022-09-11T19:20:17.049Z,1.70
2022-09-11T19:22:44.263Z,1.70
2022-09-11T19:25:11.097Z,1.50
2022-09-11T19:27:38.109Z,4.13
2022-09-11T19:30:06.346Z,2.13
2022-09-11T19:32:33.860Z,2.03
2022-09-11T19:35:01.015Z,1.83
2022-09-11T19:37:28.132Z,2.00
2022-09-11T19:39:55.294Z,1.97
2022-09-11T19:42:22.629Z,2.05
2022-09-11T19:44:53.044Z,2.03
2022-09-11T19:47:22.704Z,2.10
2022-09-11T19:49:49.824Z,2.35
2022-09-11T19:52:16.788Z,3.00
2022-09-11T19:54:43.817Z,2.35
2022-09-11T19:57:10.741Z,2.78
2022-09-11T19:59:37.712Z,1.92
2022-09-11T20:02:05.847Z,1.80
2022-09-11T20:04:32.992Z,3.07
2022-09-11T20:07:00.512Z,2.65
2022-09-11T20:09:31.299Z,2.42
2022-09-11T20:12:00.726Z,1.90
2022-09-11T20:14:29.030Z,2.10
2022-09-11T20:16:55.793Z,2.37
2022-09-11T20:19:22.668Z,2.28
2022-09-11T20:21:49.655Z,3.17
2022-09-11T20:24:16.441Z,2.17
2022-09-11T20:26:43.214Z,2.42
2022-09-11T20:29:13.874Z,2.53
2022-09-11T20:31:46.994Z,2.58
2022-09-11T20:34:16.268Z,2.72
2022-09-11T20:36:43.172Z,2.40
2022-09-11T20:39:12.035Z,2.33
2022-09-11T20:41:39.684Z,2.47
2022-09-11T20:44:08.126Z,2.50
2022-09-11T20:46:34.946Z,3.05
2022-09-11T20:49:01.862Z,2.85
2022-09-11T20:51:28.958Z,2.28
2022-09-11T20:53:56.159Z,2.17
2022-09-11T20:56:23.639Z,2.40
2022-09-11T20:58:50.698Z,2.40
2022-09-11T21:01:21.040Z,4.57
2022-09-11T21:03:53.454Z,2.70
2022-09-11T21:06:25.519Z,2.80
2022-09-11T21:08:54.752Z,3.22
2022-09-11T21:11:22.192Z,3.65
2022-09-11T21:13:49.016Z,2.67
2022-09-11T21:16:16.668Z,2.25
2022-09-11T21:18:49.510Z,2.60
2022-09-11T21:21:17.408Z,4.00
2022-09-11T21:23:45.289Z,2.63
2022-09-11T21:26:14.354Z,2.42
2022-09-11T21:28:41.875Z,3.20
2022-09-11T21:31:09.797Z,3.03
2022-09-11T21:33:37.913Z,5.50
2022-09-11T21:36:05.976Z,3.28
2022-09-11T21:38:33.219Z,2.65
2022-09-11T21:41:01.725Z,4.15
2022-09-11T21:43:29.098Z,3.37
2022-09-11T21:45:56.158Z,2.63
2022-09-11T21:48:24.074Z,3.83
2022-09-11T21:50:51.365Z,2.70
2022-09-11T21:53:18.969Z,3.38
2022-09-11T21:55:47.341Z,2.87
2022-09-11T21:58:21.009Z,4.28
2022-09-11T22:00:49.328Z,4.40
2022-09-11T22:03:18.375Z,3.72
2022-09-11T22:05:47.235Z,2.80
2022-09-11T22:08:17.611Z,3.20
2022-09-11T22:10:47.007Z,4.97
2022-09-11T22:13:14.220Z,3.53
2022-09-11T22:15:46.514Z,3.72
2022-09-11T22:18:14.352Z,4.68
2022-09-11T22:20:42.141Z,3.97
2022-09-11T22:23:14.855Z,2.90
2022-09-11T22:25:41.683Z,3.25
2022-09-11T22:28:08.912Z,3.40
2022-09-11T22:30:36.254Z,5.22
2022-09-11T22:33:03.105Z,4.07
2022-09-11T22:35:34.675Z,4.47
2022-09-11T22:38:01.481Z,5.32
2022-09-11T22:40:28.334Z,3.25
2022-09-11T22:42:55.066Z,2.92
2022-09-11T22:45:21.863Z,2.90
2022-09-11T22:47:48.643Z,3.60
2022-09-11T22:50:15.603Z,3.15
2022-09-11T22:52:42.447Z,3.17
2022-09-11T22:55:09.573Z,4.25
2022-09-11T22:57:36.515Z,5.77
2022-09-11T23:00:07.975Z,3.78
2022-09-11T23:02:35.380Z,3.38
2022-09-11T23:05:03.328Z,2.75
2022-09-11T23:07:30.249Z,3.25
2022-09-11T23:09:57.078Z,2.80
2022-09-11T23:12:23.889Z,3.15
2022-09-11T23:14:50.688Z,4.38
2022-09-11T23:17:17.520Z,3.88
2022-09-11T23:19:44.258Z,3.50
2022-09-11T23:22:11.226Z,4.93
2022-09-11T23:24:37.976Z,3.80
2022-09-11T23:27:04.921Z,4.90
2022-09-11T23:29:31.790Z,3.65
2022-09-11T23:31:58.642Z,4.57
2022-09-11T23:34:25.570Z,5.37
2022-09-11T23:36:52.369Z,6.00
2022-09-11T23:39:19.191Z,4.78
2022-09-11T23:41:45.922Z,3.97
2022-09-11T23:44:12.773Z,4.55
2022-09-11T23:46:39.460Z,3.10
2022-09-11T23:49:06.359Z,4.80
2022-09-11T23:51:33.424Z,4.55
2022-09-11T23:54:00.201Z,5.88
2022-09-11T23:56:26.993Z,4.00
2022-09-11T23:58:53.833Z,3.83
